sensor_id;sensor_type;location;lat;lon;timestamp;P1;durP1;ratioP1;P2;durP2;ratioP2
7767;SDS011;3928;42.626;23.382;2023-03-01T00:00:45;5.07;;;4.20;;
7767;SDS011;3928;42.626;23.382;2023-03-01T00:03:12;7.00;;;4.47;;
7767;SDS011;3928;42.626;23.382;2023-03-01T00:05:43;5.03;;;4.53;;
7767;SDS011;3928;42.626;23.382;2023-03-01T00:08:10;5.83;;;4.60;;
7767;SDS011;3928;42.626;23.382;2023-03-01T00:10:39;6.20;;;5.60;;
7767;SDS011;3928;42.626;23.382;2023-03-01T00:13:05;5.53;;;4.77;;
7767;SDS011;3928;42.626;23.382;2023-03-01T00:15:32;5.50;;;5.00;;
7767;SDS011;3928;42.626;23.382;2023-03-01T00:18:00;5.87;;;5.37;;
7767;SDS011;3928;42.626;23.382;2023-03-01T00:20:27;6.23;;;5.63;;
7767;SDS011;3928;42.626;23.382;2023-03-01T00:22:54;5.77;;;5.17;;
7767;SDS011;3928;42.626;23.382;2023-03-01T00:25:20;5.10;;;4.70;;
7767;SDS011;3928;42.626;23.382;2023-03-01T00:27:48;4.90;;;4.50;;
7767;SDS011;3928;42.626;23.382;2023-03-01T00:30:15;5.10;;;4.60;;
7767;SDS011;3928;42.626;23.382;2023-03-01T00:32:42;5.43;;;4.93;;
7767;SDS011;3928;42.626;23.382;2023-03-01T00:35:09;4.70;;;4.27;;
7767;SDS011;3928;42.626;23.382;2023-03-01T00:37:36;4.60;;;4.20;;
7767;SDS011;3928;42.626;23.382;2023-03-01T00:40:03;4.53;;;4.13;;
7767;SDS011;3928;42.626;23.382;2023-03-01T00:42:31;4.53;;;4.13;;
7767;SDS011;3928;42.626;23.382;2023-03-01T00:44:59;4.23;;;3.83;;
7767;SDS011;3928;42.626;23.382;2023-03-01T00:47:28;4.40;;;4.07;;
7767;SDS011;3928;42.626;23.382;2023-03-01T00:49:55;3.70;;;3.40;;
7767;SDS011;3928;42.626;23.382;2023-03-01T00:52:21;3.80;;;3.50;;
7767;SDS011;3928;42.626;23.382;2023-03-01T00:54:48;4.00;;;3.60;;
7767;SDS011;3928;42.626;23.382;2023-03-01T00:57:18;4.20;;;3.80;;
7767;SDS011;3928;42.626;23.382;2023-03-01T00:59:45;5.10;;;3.63;;
7767;SDS011;3928;42.626;23.382;2023-03-01T01:02:13;5.90;;;3.70;;
7767;SDS011;3928;42.626;23.382;2023-03-01T01:04:40;3.80;;;3.50;;
7767;SDS011;3928;42.626;23.382;2023-03-01T01:07:07;4.10;;;3.70;;
7767;SDS011;3928;42.626;23.382;2023-03-01T01:09:34;4.10;;;3.70;;
7767;SDS011;3928;42.626;23.382;2023-03-01T01:12:01;3.70;;;3.40;;
7767;SDS011;3928;42.626;23.382;2023-03-01T01:14:29;4.33;;;3.93;;
7767;SDS011;3928;42.626;23.382;2023-03-01T01:16:56;3.60;;;3.30;;
7767;SDS011;3928;42.626;23.382;2023-03-01T01:19:24;4.17;;;3.77;;
7767;SDS011;3928;42.626;23.382;2023-03-01T01:21:51;3.77;;;3.47;;
7767;SDS011;3928;42.626;23.382;2023-03-01T01:24:18;4.37;;;3.63;;
7767;SDS011;3928;42.626;23.382;2023-03-01T01:26:45;4.00;;;3.63;;
7767;SDS011;3928;42.626;23.382;2023-03-01T01:29:12;3.63;;;3.30;;
7767;SDS011;3928;42.626;23.382;2023-03-01T01:31:40;3.53;;;3.27;;
7767;SDS011;3928;42.626;23.382;2023-03-01T01:34:09;3.57;;;3.27;;
7767;SDS011;3928;42.626;23.382;2023-03-01T01:36:42;3.47;;;3.17;;
7767;SDS011;3928;42.626;23.382;2023-03-01T01:39:09;3.20;;;2.90;;
7767;SDS011;3928;42.626;23.382;2023-03-01T01:41:38;2.83;;;2.63;;
7767;SDS011;3928;42.626;23.382;2023-03-01T01:44:14;2.80;;;2.60;;
7767;SDS011;3928;42.626;23.382;2023-03-01T01:46:44;3.00;;;2.70;;
7767;SDS011;3928;42.626;23.382;2023-03-01T01:49:17;3.10;;;2.90;;
7767;SDS011;3928;42.626;23.382;2023-03-01T01:51:50;2.97;;;2.77;;
7767;SDS011;3928;42.626;23.382;2023-03-01T01:54:23;3.13;;;2.80;;
7767;SDS011;3928;42.626;23.382;2023-03-01T01:56:52;3.00;;;2.80;;
7767;SDS011;3928;42.626;23.382;2023-03-01T01:59:22;2.90;;;2.70;;
7767;SDS011;3928;42.626;23.382;2023-03-01T02:01:50;2.57;;;2.40;;
7767;SDS011;3928;42.626;23.382;2023-03-01T02:04:17;2.53;;;2.33;;
7767;SDS011;3928;42.626;23.382;2023-03-01T02:06:46;2.37;;;2.27;;
7767;SDS011;3928;42.626;23.382;2023-03-01T02:09:20;2.67;;;2.47;;
7767;SDS011;3928;42.626;23.382;2023-03-01T02:11:49;2.10;;;2.00;;
7767;SDS011;3928;42.626;23.382;2023-03-01T02:14:17;2.70;;;2.50;;
7767;SDS011;3928;42.626;23.382;2023-03-01T02:16:44;2.30;;;2.20;;
7767;SDS011;3928;42.626;23.382;2023-03-01T02:19:13;2.60;;;2.40;;
7767;SDS011;3928;42.626;23.382;2023-03-01T02:21:52;2.70;;;2.50;;
7767;SDS011;3928;42.626;23.382;2023-03-01T02:24:29;2.53;;;2.40;;
7767;SDS011;3928;42.626;23.382;2023-03-01T02:27:03;3.33;;;2.60;;
7767;SDS011;3928;42.626;23.382;2023-03-01T02:29:32;3.20;;;2.90;;
7767;SDS011;3928;42.626;23.382;2023-03-01T02:31:59;3.73;;;3.03;;
7767;SDS011;3928;42.626;23.382;2023-03-01T02:34:28;3.10;;;2.90;;
7767;SDS011;3928;42.626;23.382;2023-03-01T02:37:00;3.13;;;2.93;;
7767;SDS011;3928;42.626;23.382;2023-03-01T02:39:30;3.07;;;2.77;;
7767;SDS011;3928;42.626;23.382;2023-03-01T02:42:00;2.80;;;2.60;;
7767;SDS011;3928;42.626;23.382;2023-03-01T02:44:31;3.10;;;2.90;;
7767;SDS011;3928;42.626;23.382;2023-03-01T02:46:58;3.13;;;2.93;;
7767;SDS011;3928;42.626;23.382;2023-03-01T02:49:29;3.77;;;3.47;;
7767;SDS011;3928;42.626;23.382;2023-03-01T02:55:00;3.90;;;3.60;;
7767;SDS011;3928;42.626;23.382;2023-03-01T02:57:30;4.53;;;4.13;;
7767;SDS011;3928;42.626;23.382;2023-03-01T03:00:02;4.53;;;4.13;;
7767;SDS011;3928;42.626;23.382;2023-03-01T03:02:33;4.37;;;3.97;;
7767;SDS011;3928;42.626;23.382;2023-03-01T03:05:04;5.07;;;4.67;;
7767;SDS011;3928;42.626;23.382;2023-03-01T03:07:33;4.83;;;4.40;;
7767;SDS011;3928;42.626;23.382;2023-03-01T03:10:02;5.70;;;5.20;;
7767;SDS011;3928;42.626;23.382;2023-03-01T03:12:30;5.67;;;5.17;;
7767;SDS011;3928;42.626;23.382;2023-03-01T03:14:57;6.20;;;5.63;;
7767;SDS011;3928;42.626;23.382;2023-03-01T03:17:25;6.50;;;5.63;;
7767;SDS011;3928;42.626;23.382;2023-03-01T03:19:52;5.63;;;5.13;;
7767;SDS011;3928;42.626;23.382;2023-03-01T03:22:18;6.50;;;5.90;;
7767;SDS011;3928;42.626;23.382;2023-03-01T03:24:45;5.50;;;5.00;;
7767;SDS011;3928;42.626;23.382;2023-03-01T03:27:12;6.03;;;5.43;;
7767;SDS011;3928;42.626;23.382;2023-03-01T03:29:39;6.13;;;5.63;;
7767;SDS011;3928;42.626;23.382;2023-03-01T03:32:05;6.60;;;6.00;;
7767;SDS011;3928;42.626;23.382;2023-03-01T03:34:34;5.43;;;4.83;;
7767;SDS011;3928;42.626;23.382;2023-03-01T03:37:00;5.60;;;5.10;;
7767;SDS011;3928;42.626;23.382;2023-03-01T03:39:27;5.83;;;5.33;;
7767;SDS011;3928;42.626;23.382;2023-03-01T03:42:00;4.80;;;4.40;;
7767;SDS011;3928;42.626;23.382;2023-03-01T03:44:27;4.90;;;4.40;;
7767;SDS011;3928;42.626;23.382;2023-03-01T03:46:54;4.67;;;4.27;;
7767;SDS011;3928;42.626;23.382;2023-03-01T03:49:21;4.73;;;4.33;;
7767;SDS011;3928;42.626;23.382;2023-03-01T03:51:49;4.17;;;3.87;;
7767;SDS011;3928;42.626;23.382;2023-03-01T03:54:16;4.80;;;4.40;;
7767;SDS011;3928;42.626;23.382;2023-03-01T03:56:42;5.17;;;4.77;;
7767;SDS011;3928;42.626;23.382;2023-03-01T03:59:09;4.63;;;4.23;;
7767;SDS011;3928;42.626;23.382;2023-03-01T04:01:36;4.80;;;4.40;;
7767;SDS011;3928;42.626;23.382;2023-03-01T04:04:03;4.30;;;3.90;;
7767;SDS011;3928;42.626;23.382;2023-03-01T04:06:32;4.30;;;3.90;;
7767;SDS011;3928;42.626;23.382;2023-03-01T04:09:01;5.37;;;4.63;;
7767;SDS011;3928;42.626;23.382;2023-03-01T04:11:28;4.37;;;3.97;;
7767;SDS011;3928;42.626;23.382;2023-03-01T04:13:55;4.43;;;4.03;;
7767;SDS011;3928;42.626;23.382;2023-03-01T04:16:24;5.10;;;4.53;;
7767;SDS011;3928;42.626;23.382;2023-03-01T04:18:51;3.90;;;3.60;;
7767;SDS011;3928;42.626;23.382;2023-03-01T04:21:19;6.53;;;4.33;;
7767;SDS011;3928;42.626;23.382;2023-03-01T04:23:46;4.30;;;3.90;;
7767;SDS011;3928;42.626;23.382;2023-03-01T04:26:14;4.17;;;3.77;;
7767;SDS011;3928;42.626;23.382;2023-03-01T04:28:42;4.47;;;3.77;;
7767;SDS011;3928;42.626;23.382;2023-03-01T04:31:11;4.60;;;4.20;;
7767;SDS011;3928;42.626;23.382;2023-03-01T04:33:41;5.47;;;4.97;;
7767;SDS011;3928;42.626;23.382;2023-03-01T04:36:10;4.80;;;4.40;;
7767;SDS011;3928;42.626;23.382;2023-03-01T04:38:37;5.07;;;4.57;;
7767;SDS011;3928;42.626;23.382;2023-03-01T04:41:05;5.17;;;4.67;;
7767;SDS011;3928;42.626;23.382;2023-03-01T04:43:34;5.47;;;4.73;;
7767;SDS011;3928;42.626;23.382;2023-03-01T04:46:02;5.00;;;4.47;;
7767;SDS011;3928;42.626;23.382;2023-03-01T04:48:29;5.57;;;4.00;;
7767;SDS011;3928;42.626;23.382;2023-03-01T04:50:57;6.13;;;4.47;;
7767;SDS011;3928;42.626;23.382;2023-03-01T04:53:24;5.63;;;5.03;;
7767;SDS011;3928;42.626;23.382;2023-03-01T04:55:51;4.67;;;4.20;;
7767;SDS011;3928;42.626;23.382;2023-03-01T04:58:20;4.83;;;4.43;;
7767;SDS011;3928;42.626;23.382;2023-03-01T05:00:48;4.07;;;3.67;;
7767;SDS011;3928;42.626;23.382;2023-03-01T05:03:15;4.53;;;4.13;;
7767;SDS011;3928;42.626;23.382;2023-03-01T05:05:43;4.63;;;4.20;;
7767;SDS011;3928;42.626;23.382;2023-03-01T05:08:11;4.17;;;3.70;;
7767;SDS011;3928;42.626;23.382;2023-03-01T05:10:43;6.77;;;5.50;;
7767;SDS011;3928;42.626;23.382;2023-03-01T05:13:11;5.47;;;4.97;;
7767;SDS011;3928;42.626;23.382;2023-03-01T05:15:40;5.40;;;4.63;;
7767;SDS011;3928;42.626;23.382;2023-03-01T05:18:08;4.20;;;3.80;;
7767;SDS011;3928;42.626;23.382;2023-03-01T05:20:36;4.43;;;3.93;;
7767;SDS011;3928;42.626;23.382;2023-03-01T05:23:04;4.27;;;3.87;;
7767;SDS011;3928;42.626;23.382;2023-03-01T05:25:31;4.80;;;4.20;;
7767;SDS011;3928;42.626;23.382;2023-03-01T05:28:00;4.00;;;3.60;;
7767;SDS011;3928;42.626;23.382;2023-03-01T05:30:29;3.50;;;3.27;;
7767;SDS011;3928;42.626;23.382;2023-03-01T05:32:57;3.10;;;2.80;;
7767;SDS011;3928;42.626;23.382;2023-03-01T05:35:26;2.57;;;2.40;;
7767;SDS011;3928;42.626;23.382;2023-03-01T05:37:54;2.70;;;2.50;;
7767;SDS011;3928;42.626;23.382;2023-03-01T05:40:22;5.00;;;2.80;;
7767;SDS011;3928;42.626;23.382;2023-03-01T05:42:50;3.07;;;2.87;;
7767;SDS011;3928;42.626;23.382;2023-03-01T05:45:19;4.57;;;3.30;;
7767;SDS011;3928;42.626;23.382;2023-03-01T05:47:47;3.20;;;2.93;;
7767;SDS011;3928;42.626;23.382;2023-03-01T05:50:16;3.17;;;2.87;;
7767;SDS011;3928;42.626;23.382;2023-03-01T05:52:46;4.17;;;3.10;;
7767;SDS011;3928;42.626;23.382;2023-03-01T05:55:14;3.03;;;2.83;;
7767;SDS011;3928;42.626;23.382;2023-03-01T05:57:42;3.40;;;3.10;;
7767;SDS011;3928;42.626;23.382;2023-03-01T06:00:09;3.67;;;3.37;;
7767;SDS011;3928;42.626;23.382;2023-03-01T06:02:37;3.03;;;2.83;;
7767;SDS011;3928;42.626;23.382;2023-03-01T06:05:05;3.40;;;2.83;;
7767;SDS011;3928;42.626;23.382;2023-03-01T06:07:33;3.37;;;3.07;;
7767;SDS011;3928;42.626;23.382;2023-03-01T06:10:02;4.20;;;2.73;;
7767;SDS011;3928;42.626;23.382;2023-03-01T06:12:30;5.10;;;2.97;;
7767;SDS011;3928;42.626;23.382;2023-03-01T06:14:57;2.20;;;2.00;;
7767;SDS011;3928;42.626;23.382;2023-03-01T06:17:24;2.53;;;2.30;;
7767;SDS011;3928;42.626;23.382;2023-03-01T06:19:51;3.20;;;2.10;;
7767;SDS011;3928;42.626;23.382;2023-03-01T06:22:18;2.30;;;2.10;;
7767;SDS011;3928;42.626;23.382;2023-03-01T06:24:44;6.43;;;2.00;;
7767;SDS011;3928;42.626;23.382;2023-03-01T06:27:13;3.90;;;2.20;;
7767;SDS011;3928;42.626;23.382;2023-03-01T06:29:39;4.67;;;2.30;;
7767;SDS011;3928;42.626;23.382;2023-03-01T06:32:06;3.53;;;3.13;;
7767;SDS011;3928;42.626;23.382;2023-03-01T06:34:33;4.50;;;2.90;;
7767;SDS011;3928;42.626;23.382;2023-03-01T06:37:00;9.13;;;6.43;;
7767;SDS011;3928;42.626;23.382;2023-03-01T06:39:30;1.90;;;1.80;;
7767;SDS011;3928;42.626;23.382;2023-03-01T06:41:57;5.50;;;1.93;;
7767;SDS011;3928;42.626;23.382;2023-03-01T06:44:25;3.63;;;2.17;;
7767;SDS011;3928;42.626;23.382;2023-03-01T06:46:52;2.83;;;2.17;;
7767;SDS011;3928;42.626;23.382;2023-03-01T06:49:19;5.83;;;3.23;;
7767;SDS011;3928;42.626;23.382;2023-03-01T06:51:46;5.70;;;2.50;;
7767;SDS011;3928;42.626;23.382;2023-03-01T06:54:13;2.13;;;2.03;;
7767;SDS011;3928;42.626;23.382;2023-03-01T06:56:39;3.13;;;2.60;;
7767;SDS011;3928;42.626;23.382;2023-03-01T06:59:06;3.20;;;2.90;;
7767;SDS011;3928;42.626;23.382;2023-03-01T07:01:34;3.27;;;2.80;;
7767;SDS011;3928;42.626;23.382;2023-03-01T07:04:01;3.00;;;2.63;;
7767;SDS011;3928;42.626;23.382;2023-03-01T07:06:29;2.90;;;2.70;;
7767;SDS011;3928;42.626;23.382;2023-03-01T07:08:56;3.30;;;2.70;;
7767;SDS011;3928;42.626;23.382;2023-03-01T07:11:23;5.40;;;3.10;;
7767;SDS011;3928;42.626;23.382;2023-03-01T07:13:50;3.03;;;2.73;;
7767;SDS011;3928;42.626;23.382;2023-03-01T07:16:16;2.50;;;2.30;;
7767;SDS011;3928;42.626;23.382;2023-03-01T07:18:46;4.57;;;2.70;;
7767;SDS011;3928;42.626;23.382;2023-03-01T07:21:13;5.40;;;4.20;;
7767;SDS011;3928;42.626;23.382;2023-03-01T07:23:41;10.40;;;6.93;;
7767;SDS011;3928;42.626;23.382;2023-03-01T07:26:08;3.87;;;2.53;;
7767;SDS011;3928;42.626;23.382;2023-03-01T07:28:35;4.20;;;2.67;;
7767;SDS011;3928;42.626;23.382;2023-03-01T07:31:04;3.43;;;2.40;;
7767;SDS011;3928;42.626;23.382;2023-03-01T07:33:32;3.20;;;2.90;;
7767;SDS011;3928;42.626;23.382;2023-03-01T07:36:01;2.67;;;2.47;;
7767;SDS011;3928;42.626;23.382;2023-03-01T07:38:29;2.93;;;2.53;;
7767;SDS011;3928;42.626;23.382;2023-03-01T07:40:59;3.10;;;2.80;;
7767;SDS011;3928;42.626;23.382;2023-03-01T07:43:27;5.80;;;3.47;;
7767;SDS011;3928;42.626;23.382;2023-03-01T07:45:54;4.47;;;3.30;;
7767;SDS011;3928;42.626;23.382;2023-03-01T07:48:20;3.50;;;3.20;;
7767;SDS011;3928;42.626;23.382;2023-03-01T07:50:47;3.37;;;2.70;;
7767;SDS011;3928;42.626;23.382;2023-03-01T07:53:15;3.73;;;2.73;;
7767;SDS011;3928;42.626;23.382;2023-03-01T07:55:42;3.87;;;2.27;;
7767;SDS011;3928;42.626;23.382;2023-03-01T07:58:09;2.70;;;2.50;;
7767;SDS011;3928;42.626;23.382;2023-03-01T08:00:36;2.50;;;2.30;;
7767;SDS011;3928;42.626;23.382;2023-03-01T08:03:03;2.73;;;2.17;;
7767;SDS011;3928;42.626;23.382;2023-03-01T08:05:30;2.47;;;2.27;;
7767;SDS011;3928;42.626;23.382;2023-03-01T08:07:56;3.90;;;2.53;;
7767;SDS011;3928;42.626;23.382;2023-03-01T08:10:25;2.53;;;2.33;;
7767;SDS011;3928;42.626;23.382;2023-03-01T08:12:52;3.03;;;2.77;;
7767;SDS011;3928;42.626;23.382;2023-03-01T08:15:19;4.23;;;2.97;;
7767;SDS011;3928;42.626;23.382;2023-03-01T08:17:46;4.17;;;2.90;;
7767;SDS011;3928;42.626;23.382;2023-03-01T08:20:15;3.37;;;3.07;;
7767;SDS011;3928;42.626;23.382;2023-03-01T08:22:42;3.70;;;3.40;;
7767;SDS011;3928;42.626;23.382;2023-03-01T08:25:09;3.83;;;3.43;;
7767;SDS011;3928;42.626;23.382;2023-03-01T08:27:37;5.33;;;3.60;;
7767;SDS011;3928;42.626;23.382;2023-03-01T08:30:04;3.93;;;3.43;;
7767;SDS011;3928;42.626;23.382;2023-03-01T08:32:35;5.57;;;3.30;;
7767;SDS011;3928;42.626;23.382;2023-03-01T08:35:03;4.83;;;3.30;;
7767;SDS011;3928;42.626;23.382;2023-03-01T08:37:31;3.53;;;3.23;;
7767;SDS011;3928;42.626;23.382;2023-03-01T08:39:58;6.70;;;3.17;;
7767;SDS011;3928;42.626;23.382;2023-03-01T08:42:25;3.73;;;3.17;;
7767;SDS011;3928;42.626;23.382;2023-03-01T08:44:53;3.77;;;3.00;;
7767;SDS011;3928;42.626;23.382;2023-03-01T08:47:21;3.60;;;3.30;;
7767;SDS011;3928;42.626;23.382;2023-03-01T08:49:48;3.03;;;2.73;;
7767;SDS011;3928;42.626;23.382;2023-03-01T08:52:16;3.30;;;3.00;;
7767;SDS011;3928;42.626;23.382;2023-03-01T08:54:43;3.87;;;3.47;;
7767;SDS011;3928;42.626;23.382;2023-03-01T08:57:09;4.20;;;2.97;;
7767;SDS011;3928;42.626;23.382;2023-03-01T08:59:37;3.37;;;3.07;;
7767;SDS011;3928;42.626;23.382;2023-03-01T09:02:08;4.23;;;3.17;;
7767;SDS011;3928;42.626;23.382;2023-03-01T09:04:39;4.13;;;2.93;;
7767;SDS011;3928;42.626;23.382;2023-03-01T09:07:06;3.57;;;3.27;;
7767;SDS011;3928;42.626;23.382;2023-03-01T09:09:33;3.13;;;2.83;;
7767;SDS011;3928;42.626;23.382;2023-03-01T09:12:00;3.60;;;2.97;;
7767;SDS011;3928;42.626;23.382;2023-03-01T09:14:27;3.23;;;2.93;;
7767;SDS011;3928;42.626;23.382;2023-03-01T09:16:54;3.70;;;3.40;;
7767;SDS011;3928;42.626;23.382;2023-03-01T09:19:22;3.10;;;2.80;;
7767;SDS011;3928;42.626;23.382;2023-03-01T09:21:49;3.40;;;3.10;;
7767;SDS011;3928;42.626;23.382;2023-03-01T09:24:18;2.77;;;2.57;;
7767;SDS011;3928;42.626;23.382;2023-03-01T09:26:47;3.37;;;3.07;;
7767;SDS011;3928;42.626;23.382;2023-03-01T09:29:14;4.77;;;2.93;;
7767;SDS011;3928;42.626;23.382;2023-03-01T09:31:41;3.10;;;2.90;;
7767;SDS011;3928;42.626;23.382;2023-03-01T09:34:09;4.03;;;3.67;;
7767;SDS011;3928;42.626;23.382;2023-03-01T09:36:37;3.40;;;2.80;;
7767;SDS011;3928;42.626;23.382;2023-03-01T09:39:04;5.13;;;3.97;;
7767;SDS011;3928;42.626;23.382;2023-03-01T09:44:24;3.20;;;3.00;;
7767;SDS011;3928;42.626;23.382;2023-03-01T09:46:57;3.93;;;3.63;;
7767;SDS011;3928;42.626;23.382;2023-03-01T09:49:25;3.40;;;3.10;;
7767;SDS011;3928;42.626;23.382;2023-03-01T09:51:57;4.20;;;3.80;;
7767;SDS011;3928;42.626;23.382;2023-03-01T09:54:27;3.47;;;3.20;;
7767;SDS011;3928;42.626;23.382;2023-03-01T09:56:59;3.40;;;3.10;;
7767;SDS011;3928;42.626;23.382;2023-03-01T09:59:33;3.13;;;2.90;;
7767;SDS011;3928;42.626;23.382;2023-03-01T10:02:18;3.57;;;3.27;;
7767;SDS011;3928;42.626;23.382;2023-03-01T10:04:51;4.00;;;3.70;;
7767;SDS011;3928;42.626;23.382;2023-03-01T10:07:25;11.73;;;7.57;;
7767;SDS011;3928;42.626;23.382;2023-03-01T10:09:59;3.93;;;3.63;;
7767;SDS011;3928;42.626;23.382;2023-03-01T10:12:31;5.53;;;3.80;;
7767;SDS011;3928;42.626;23.382;2023-03-01T10:15:03;4.80;;;4.37;;
7767;SDS011;3928;42.626;23.382;2023-03-01T10:17:36;3.70;;;3.40;;
7767;SDS011;3928;42.626;23.382;2023-03-01T10:20:15;4.83;;;4.00;;
7767;SDS011;3928;42.626;23.382;2023-03-01T10:22:46;5.37;;;4.00;;
7767;SDS011;3928;42.626;23.382;2023-03-01T10:25:17;6.80;;;3.90;;
7767;SDS011;3928;42.626;23.382;2023-03-01T10:27:51;4.67;;;4.10;;
7767;SDS011;3928;42.626;23.382;2023-03-01T10:30:20;4.10;;;3.70;;
7767;SDS011;3928;42.626;23.382;2023-03-01T10:32:49;4.17;;;3.77;;
7767;SDS011;3928;42.626;23.382;2023-03-01T10:35:20;3.77;;;3.47;;
7767;SDS011;3928;42.626;23.382;2023-03-01T10:38:03;4.10;;;3.23;;
7767;SDS011;3928;42.626;23.382;2023-03-01T10:40:32;4.10;;;3.70;;
7767;SDS011;3928;42.626;23.382;2023-03-01T10:42:59;3.60;;;3.30;;
7767;SDS011;3928;42.626;23.382;2023-03-01T10:45:33;3.87;;;3.50;;
7767;SDS011;3928;42.626;23.382;2023-03-01T10:48:05;3.70;;;3.40;;
7767;SDS011;3928;42.626;23.382;2023-03-01T10:50:37;3.80;;;3.50;;
7767;SDS011;3928;42.626;23.382;2023-03-01T10:53:16;4.53;;;3.40;;
7767;SDS011;3928;42.626;23.382;2023-03-01T10:55:58;3.97;;;3.67;;
7767;SDS011;3928;42.626;23.382;2023-03-01T10:58:27;4.30;;;3.90;;
7767;SDS011;3928;42.626;23.382;2023-03-01T11:00:56;5.50;;;3.50;;
7767;SDS011;3928;42.626;23.382;2023-03-01T11:03:24;3.13;;;2.90;;
7767;SDS011;3928;42.626;23.382;2023-03-01T11:05:58;4.43;;;3.47;;
7767;SDS011;3928;42.626;23.382;2023-03-01T11:08:33;5.00;;;3.47;;
7767;SDS011;3928;42.626;23.382;2023-03-01T11:11:18;4.40;;;3.93;;
7767;SDS011;3928;42.626;23.382;2023-03-01T11:13:50;4.07;;;3.63;;
7767;SDS011;3928;42.626;23.382;2023-03-01T11:16:23;3.97;;;3.53;;
7767;SDS011;3928;42.626;23.382;2023-03-01T11:18:58;5.40;;;4.67;;
7767;SDS011;3928;42.626;23.382;2023-03-01T11:21:28;4.60;;;4.20;;
7767;SDS011;3928;42.626;23.382;2023-03-01T11:24:00;4.03;;;3.63;;
7767;SDS011;3928;42.626;23.382;2023-03-01T11:26:30;5.63;;;3.67;;
7767;SDS011;3928;42.626;23.382;2023-03-01T11:29:03;6.27;;;4.00;;
7767;SDS011;3928;42.626;23.382;2023-03-01T11:31:33;6.17;;;3.60;;
7767;SDS011;3928;42.626;23.382;2023-03-01T11:34:03;4.60;;;3.90;;
7767;SDS011;3928;42.626;23.382;2023-03-01T11:36:40;5.93;;;4.37;;
7767;SDS011;3928;42.626;23.382;2023-03-01T11:39:16;4.77;;;4.20;;
7767;SDS011;3928;42.626;23.382;2023-03-01T11:41:48;5.67;;;4.13;;
7767;SDS011;3928;42.626;23.382;2023-03-01T11:44:19;4.00;;;3.57;;
7767;SDS011;3928;42.626;23.382;2023-03-01T11:46:57;4.20;;;3.80;;
7767;SDS011;3928;42.626;23.382;2023-03-01T11:49:43;4.53;;;4.07;;
7767;SDS011;3928;42.626;23.382;2023-03-01T11:52:26;3.80;;;3.50;;
7767;SDS011;3928;42.626;23.382;2023-03-01T11:55:12;4.23;;;3.83;;
7767;SDS011;3928;42.626;23.382;2023-03-01T11:57:55;8.93;;;6.27;;
7767;SDS011;3928;42.626;23.382;2023-03-01T12:00:36;7.00;;;4.10;;
7767;SDS011;3928;42.626;23.382;2023-03-01T12:03:25;5.20;;;4.40;;
7767;SDS011;3928;42.626;23.382;2023-03-01T12:08:59;5.00;;;4.37;;
7767;SDS011;3928;42.626;23.382;2023-03-01T12:11:41;4.70;;;4.23;;
7767;SDS011;3928;42.626;23.382;2023-03-01T12:14:27;4.30;;;3.90;;
7767;SDS011;3928;42.626;23.382;2023-03-01T12:17:13;4.30;;;3.90;;
7767;SDS011;3928;42.626;23.382;2023-03-01T12:20:00;3.97;;;3.57;;
7767;SDS011;3928;42.626;23.382;2023-03-01T12:22:37;4.40;;;4.00;;
7767;SDS011;3928;42.626;23.382;2023-03-01T12:25:18;3.63;;;3.33;;
7767;SDS011;3928;42.626;23.382;2023-03-01T12:30:51;4.23;;;3.47;;
7767;SDS011;3928;42.626;23.382;2023-03-01T12:33:42;4.63;;;4.03;;
7767;SDS011;3928;42.626;23.382;2023-03-01T12:36:36;4.00;;;3.70;;
7767;SDS011;3928;42.626;23.382;2023-03-01T12:39:24;5.90;;;3.80;;
7767;SDS011;3928;42.626;23.382;2023-03-01T12:42:04;4.73;;;3.73;;
7767;SDS011;3928;42.626;23.382;2023-03-01T12:44:54;3.43;;;3.20;;
7767;SDS011;3928;42.626;23.382;2023-03-01T12:47:40;4.47;;;4.07;;
7767;SDS011;3928;42.626;23.382;2023-03-01T12:50:18;6.43;;;4.33;;
7767;SDS011;3928;42.626;23.382;2023-03-01T12:52:48;4.20;;;3.60;;
7767;SDS011;3928;42.626;23.382;2023-03-01T12:55:24;3.60;;;3.30;;
7767;SDS011;3928;42.626;23.382;2023-03-01T12:57:57;4.30;;;3.73;;
7767;SDS011;3928;42.626;23.382;2023-03-01T13:00:32;4.37;;;3.97;;
7767;SDS011;3928;42.626;23.382;2023-03-01T13:03:09;4.30;;;3.87;;
7767;SDS011;3928;42.626;23.382;2023-03-01T13:05:47;4.07;;;3.73;;
7767;SDS011;3928;42.626;23.382;2023-03-01T13:08:27;4.37;;;3.83;;
7767;SDS011;3928;42.626;23.382;2023-03-01T13:11:00;5.33;;;4.83;;
7767;SDS011;3928;42.626;23.382;2023-03-01T13:13:28;5.13;;;4.43;;
7767;SDS011;3928;42.626;23.382;2023-03-01T13:15:57;5.00;;;4.50;;
7767;SDS011;3928;42.626;23.382;2023-03-01T13:18:44;5.03;;;4.60;;
7767;SDS011;3928;42.626;23.382;2023-03-01T13:21:11;5.87;;;4.83;;
7767;SDS011;3928;42.626;23.382;2023-03-01T13:23:38;5.20;;;4.70;;
7767;SDS011;3928;42.626;23.382;2023-03-01T13:26:10;5.40;;;4.40;;
7767;SDS011;3928;42.626;23.382;2023-03-01T13:37:32;5.20;;;4.07;;
7767;SDS011;3928;42.626;23.382;2023-03-01T13:40:02;4.77;;;4.37;;
7767;SDS011;3928;42.626;23.382;2023-03-01T13:42:44;4.40;;;4.00;;
7767;SDS011;3928;42.626;23.382;2023-03-01T13:45:17;4.57;;;4.17;;
7767;SDS011;3928;42.626;23.382;2023-03-01T13:47:49;5.13;;;3.97;;
7767;SDS011;3928;42.626;23.382;2023-03-01T13:50:20;4.30;;;3.90;;
7767;SDS011;3928;42.626;23.382;2023-03-01T13:52:50;4.33;;;3.93;;
7767;SDS011;3928;42.626;23.382;2023-03-01T13:55:23;4.80;;;4.27;;
7767;SDS011;3928;42.626;23.382;2023-03-01T13:57:55;4.67;;;3.70;;
7767;SDS011;3928;42.626;23.382;2023-03-01T14:00:28;6.40;;;4.37;;
7767;SDS011;3928;42.626;23.382;2023-03-01T14:03:04;7.57;;;4.37;;
7767;SDS011;3928;42.626;23.382;2023-03-01T14:05:37;5.57;;;4.03;;
7767;SDS011;3928;42.626;23.382;2023-03-01T14:08:17;4.30;;;3.70;;
7767;SDS011;3928;42.626;23.382;2023-03-01T14:10:49;8.93;;;6.93;;
7767;SDS011;3928;42.626;23.382;2023-03-01T14:13:28;8.17;;;4.20;;
7767;SDS011;3928;42.626;23.382;2023-03-01T14:16:13;3.70;;;3.40;;
7767;SDS011;3928;42.626;23.382;2023-03-01T14:18:54;4.17;;;3.77;;
7767;SDS011;3928;42.626;23.382;2023-03-01T14:21:29;3.87;;;3.37;;
7767;SDS011;3928;42.626;23.382;2023-03-01T14:26:43;4.67;;;4.13;;
7767;SDS011;3928;42.626;23.382;2023-03-01T14:29:23;5.27;;;3.90;;
7767;SDS011;3928;42.626;23.382;2023-03-01T14:31:50;4.57;;;4.10;;
7767;SDS011;3928;42.626;23.382;2023-03-01T14:34:20;4.27;;;3.87;;
7767;SDS011;3928;42.626;23.382;2023-03-01T14:36:48;5.17;;;4.57;;
7767;SDS011;3928;42.626;23.382;2023-03-01T14:39:19;4.33;;;3.93;;
7767;SDS011;3928;42.626;23.382;2023-03-01T14:41:49;4.77;;;3.97;;
7767;SDS011;3928;42.626;23.382;2023-03-01T14:44:18;4.47;;;4.03;;
7767;SDS011;3928;42.626;23.382;2023-03-01T14:46:51;4.60;;;4.10;;
7767;SDS011;3928;42.626;23.382;2023-03-01T14:49:22;4.50;;;4.10;;
7767;SDS011;3928;42.626;23.382;2023-03-01T14:51:53;4.93;;;4.27;;
7767;SDS011;3928;42.626;23.382;2023-03-01T14:54:24;4.77;;;4.10;;
7767;SDS011;3928;42.626;23.382;2023-03-01T14:56:58;5.80;;;4.07;;
7767;SDS011;3928;42.626;23.382;2023-03-01T14:59:26;5.27;;;4.53;;
7767;SDS011;3928;42.626;23.382;2023-03-01T15:01:55;6.70;;;4.93;;
7767;SDS011;3928;42.626;23.382;2023-03-01T15:04:25;7.73;;;4.47;;
7767;SDS011;3928;42.626;23.382;2023-03-01T15:06:53;5.87;;;4.80;;
7767;SDS011;3928;42.626;23.382;2023-03-01T15:09:22;5.63;;;4.57;;
7767;SDS011;3928;42.626;23.382;2023-03-01T15:11:49;5.90;;;4.90;;
7767;SDS011;3928;42.626;23.382;2023-03-01T15:14:25;5.93;;;5.30;;
7767;SDS011;3928;42.626;23.382;2023-03-01T15:16:54;6.90;;;4.87;;
7767;SDS011;3928;42.626;23.382;2023-03-01T15:19:22;5.17;;;4.57;;
7767;SDS011;3928;42.626;23.382;2023-03-01T15:21:53;5.03;;;4.53;;
7767;SDS011;3928;42.626;23.382;2023-03-01T15:24:23;8.10;;;4.47;;
7767;SDS011;3928;42.626;23.382;2023-03-01T15:26:56;5.50;;;4.40;;
7767;SDS011;3928;42.626;23.382;2023-03-01T15:29:27;5.50;;;4.50;;
7767;SDS011;3928;42.626;23.382;2023-03-01T15:31:56;6.27;;;4.97;;
7767;SDS011;3928;42.626;23.382;2023-03-01T15:34:27;5.77;;;4.60;;
7767;SDS011;3928;42.626;23.382;2023-03-01T15:36:57;9.07;;;4.80;;
7767;SDS011;3928;42.626;23.382;2023-03-01T15:45:07;6.37;;;4.70;;
7767;SDS011;3928;42.626;23.382;2023-03-01T15:47:34;5.23;;;4.73;;